sensor_id;sensor_type;location;lat;lon;timestamp;pressure;altitude;pressure_sealevel;temperature;humidity
64668;BME280;51077;42.716;23.344;2023-02-22T00:00:49;95325.28;;;13.32;31.71
64668;BME280;51077;42.716;23.344;2023-02-22T00:03:17;95325.28;;;13.32;31.67
64668;BME280;51077;42.716;23.344;2023-02-22T00:05:49;95320.84;;;13.29;31.73
64668;BME280;51077;42.716;23.344;2023-02-22T00:08:18;95316.63;;;13.28;31.86
64668;BME280;51077;42.716;23.344;2023-02-22T00:10:44;95321.38;;;13.27;31.79
64668;BME280;51077;42.716;23.344;2023-02-22T00:13:12;95316.63;;;13.28;31.99
64668;BME280;51077;42.716;23.344;2023-02-22T00:15:38;95318.41;;;13.25;31.95
64668;BME280;51077;42.716;23.344;2023-02-22T00:18:07;95315.41;;;13.23;31.93
64668;BME280;51077;42.716;23.344;2023-02-22T00:20:35;95320.19;;;13.23;31.92
64668;BME280;51077;42.716;23.344;2023-02-22T00:23:04;95315.94;;;13.22;32.21
64668;BME280;51077;42.716;23.344;2023-02-22T00:25:31;95320.50;;;13.19;31.91
64668;BME280;51077;42.716;23.344;2023-02-22T00:27:58;95316.78;;;13.17;32.03
64668;BME280;51077;42.716;23.344;2023-02-22T00:30:27;95315.28;;;13.16;32.15
64668;BME280;51077;42.716;23.344;2023-02-22T00:32:54;95319.31;;;13.15;31.90
64668;BME280;51077;42.716;23.344;2023-02-22T00:35:27;95320.56;;;13.14;32.31
64668;BME280;51077;42.716;23.344;2023-02-22T00:37:55;95321.31;;;13.14;32.18
64668;BME280;51077;42.716;23.344;2023-02-22T00:40:23;95318.34;;;13.12;32.44
64668;BME280;51077;42.716;23.344;2023-02-22T00:42:49;95313.38;;;13.11;32.35
64668;BME280;51077;42.716;23.344;2023-02-22T00:45:17;95315.91;;;13.08;32.40
64668;BME280;51077;42.716;23.344;2023-02-22T00:47:43;95316.44;;;13.07;32.44
64668;BME280;51077;42.716;23.344;2023-02-22T00:50:09;95308.50;;;13.03;32.38
64668;BME280;51077;42.716;23.344;2023-02-22T00:52:35;95316.53;;;13.01;32.49
64668;BME280;51077;42.716;23.344;2023-02-22T00:55:01;95306.03;;;13.00;32.44
64668;BME280;51077;42.716;23.344;2023-02-22T00:57:27;95309.31;;;12.98;32.66
64668;BME280;51077;42.716;23.344;2023-02-22T00:59:52;95300.63;;;12.94;32.68
64668;BME280;51077;42.716;23.344;2023-02-22T01:02:18;95296.16;;;12.91;32.64
64668;BME280;51077;42.716;23.344;2023-02-22T01:04:43;95296.47;;;12.88;32.98
64668;BME280;51077;42.716;23.344;2023-02-22T01:07:09;95290.00;;;12.85;32.72
64668;BME280;51077;42.716;23.344;2023-02-22T01:09:34;95293.06;;;12.81;32.89
64668;BME280;51077;42.716;23.344;2023-02-22T01:11:59;95296.88;;;12.78;32.93
64668;BME280;51077;42.716;23.344;2023-02-22T01:14:26;95295.94;;;12.76;33.15
64668;BME280;51077;42.716;23.344;2023-02-22T01:16:55;95296.97;;;12.73;32.79
64668;BME280;51077;42.716;23.344;2023-02-22T01:19:21;95303.31;;;12.68;32.94
64668;BME280;51077;42.716;23.344;2023-02-22T01:21:48;95295.34;;;12.64;33.20
64668;BME280;51077;42.716;23.344;2023-02-22T01:24:14;95291.63;;;12.62;33.25
64668;BME280;51077;42.716;23.344;2023-02-22T01:26:49;95289.19;;;12.58;33.28
64668;BME280;51077;42.716;23.344;2023-02-22T01:29:16;95289.81;;;12.51;33.17
64668;BME280;51077;42.716;23.344;2023-02-22T01:31:42;95287.56;;;12.49;33.23
64668;BME280;51077;42.716;23.344;2023-02-22T01:34:09;95286.38;;;12.45;33.46
64668;BME280;51077;42.716;23.344;2023-02-22T01:36:35;95276.44;;;12.42;33.28
64668;BME280;51077;42.716;23.344;2023-02-22T01:39:00;95285.00;;;12.38;33.60
64668;BME280;51077;42.716;23.344;2023-02-22T01:41:26;95281.06;;;12.33;33.56
64668;BME280;51077;42.716;23.344;2023-02-22T01:43:51;95283.38;;;12.29;33.60
64668;BME280;51077;42.716;23.344;2023-02-22T01:46:22;95283.13;;;12.27;33.72
64668;BME280;51077;42.716;23.344;2023-02-22T01:49:04;95279.44;;;12.25;33.52
64668;BME280;51077;42.716;23.344;2023-02-22T01:51:36;95279.72;;;12.21;33.68
64668;BME280;51077;42.716;23.344;2023-02-22T01:54:16;95281.28;;;12.17;33.74
64668;BME280;51077;42.716;23.344;2023-02-22T01:56:57;95291.13;;;12.12;33.73
64668;BME280;51077;42.716;23.344;2023-02-22T01:59:26;95292.69;;;12.07;33.92
64668;BME280;51077;42.716;23.344;2023-02-22T02:01:57;95297.22;;;12.05;33.79
64668;BME280;51077;42.716;23.344;2023-02-22T02:04:23;95292.53;;;12.00;33.92
64668;BME280;51077;42.716;23.344;2023-02-22T02:06:53;95292.31;;;11.98;33.97
64668;BME280;51077;42.716;23.344;2023-02-22T02:09:35;95298.31;;;11.96;33.99
64668;BME280;51077;42.716;23.344;2023-02-22T02:12:01;95300.41;;;11.90;34.06
64668;BME280;51077;42.716;23.344;2023-02-22T02:14:29;95295.44;;;11.89;34.29
64668;BME280;51077;42.716;23.344;2023-02-22T02:16:58;95276.97;;;11.83;34.20
64668;BME280;51077;42.716;23.344;2023-02-22T02:36:35;95297.00;;;11.60;34.69
64668;BME280;51077;42.716;23.344;2023-02-22T02:39:37;95300.56;;;11.54;34.78
64668;BME280;51077;42.716;23.344;2023-02-22T02:42:07;95302.84;;;11.50;34.78
64668;BME280;51077;42.716;23.344;2023-02-22T02:44:40;95303.34;;;11.49;34.87
64668;BME280;51077;42.716;23.344;2023-02-22T02:47:27;95311.38;;;11.47;34.80
64668;BME280;51077;42.716;23.344;2023-02-22T02:49:59;95313.91;;;11.45;35.18
64668;BME280;51077;42.716;23.344;2023-02-22T02:52:27;95314.22;;;11.41;34.96
64668;BME280;51077;42.716;23.344;2023-02-22T02:54:54;95309.94;;;11.40;35.12
64668;BME280;51077;42.716;23.344;2023-02-22T02:57:20;95305.72;;;11.39;35.02
64668;BME280;51077;42.716;23.344;2023-02-22T02:59:46;95315.22;;;11.38;35.12
64668;BME280;51077;42.716;23.344;2023-02-22T03:02:48;95313.00;;;11.37;35.29
64668;BME280;51077;42.716;23.344;2023-02-22T03:08:22;95310.53;;;11.33;35.08
64668;BME280;51077;42.716;23.344;2023-02-22T03:10:59;95314.56;;;11.32;35.25
64668;BME280;51077;42.716;23.344;2023-02-22T03:16:39;95311.84;;;11.26;35.32
64668;BME280;51077;42.716;23.344;2023-02-22T03:19:12;95315.84;;;11.25;35.64
64668;BME280;51077;42.716;23.344;2023-02-22T03:27:27;95303.13;;;11.22;35.48
64668;BME280;51077;42.716;23.344;2023-02-22T03:29:57;95305.66;;;11.20;35.35
64668;BME280;51077;42.716;23.344;2023-02-22T03:32:28;95316.13;;;11.22;35.44
64668;BME280;51077;42.716;23.344;2023-02-22T03:35:04;95309.38;;;11.23;35.42
64668;BME280;51077;42.716;23.344;2023-02-22T03:37:33;95314.66;;;11.21;35.62
64668;BME280;51077;42.716;23.344;2023-02-22T03:40:04;95313.38;;;11.22;35.29
64668;BME280;51077;42.716;23.344;2023-02-22T03:42:44;95311.16;;;11.20;35.62
64668;BME280;51077;42.716;23.344;2023-02-22T03:45:13;95309.16;;;11.21;35.52
64668;BME280;51077;42.716;23.344;2023-02-22T03:47:42;95313.38;;;11.22;35.58
64668;BME280;51077;42.716;23.344;2023-02-22T03:50:14;95310.66;;;11.22;35.53
64668;BME280;51077;42.716;23.344;2023-02-22T03:52:41;95314.13;;;11.22;35.43
64668;BME280;51077;42.716;23.344;2023-02-22T03:55:09;95310.88;;;11.24;35.44
64668;BME280;51077;42.716;23.344;2023-02-22T03:57:38;95315.63;;;11.23;35.44
64668;BME280;51077;42.716;23.344;2023-02-22T04:00:10;95307.63;;;11.25;35.56
64668;BME280;51077;42.716;23.344;2023-02-22T04:02:37;95308.13;;;11.24;35.49
64668;BME280;51077;42.716;23.344;2023-02-22T04:05:03;95311.09;;;11.26;35.34
64668;BME280;51077;42.716;23.344;2023-02-22T04:07:28;95307.63;;;11.25;35.58
64668;BME280;51077;42.716;23.344;2023-02-22T04:09:54;95315.84;;;11.25;35.70
64668;BME280;51077;42.716;23.344;2023-02-22T04:12:19;95315.84;;;11.25;35.64
64668;BME280;51077;42.716;23.344;2023-02-22T04:14:44;95313.38;;;11.22;35.46
64668;BME280;51077;42.716;23.344;2023-02-22T04:17:10;95309.16;;;11.21;35.60
64668;BME280;51077;42.716;23.344;2023-02-22T04:19:35;95313.19;;;11.20;35.59
64668;BME280;51077;42.716;23.344;2023-02-22T04:22:01;95323.19;;;11.17;35.69
64668;BME280;51077;42.716;23.344;2023-02-22T04:24:26;95312.72;;;11.16;35.62
64668;BME280;51077;42.716;23.344;2023-02-22T04:26:51;95312.47;;;11.14;35.64
64668;BME280;51077;42.716;23.344;2023-02-22T04:29:17;95331.06;;;11.26;49.61
64668;BME280;51077;42.716;23.344;2023-02-22T04:31:42;95335.44;;;11.41;47.87
64668;BME280;51077;42.716;23.344;2023-02-22T04:34:07;95332.28;;;11.31;47.07
64668;BME280;51077;42.716;23.344;2023-02-22T04:36:33;95326.31;;;11.27;46.54
64668;BME280;51077;42.716;23.344;2023-02-22T04:38:59;95328.38;;;11.21;45.92
64668;BME280;51077;42.716;23.344;2023-02-22T04:41:25;95328.44;;;11.15;45.51
64668;BME280;51077;42.716;23.344;2023-02-22T04:43:50;95327.00;;;11.08;45.23
64668;BME280;51077;42.716;23.344;2023-02-22T04:46:16;95333.06;;;11.01;44.83
64668;BME280;51077;42.716;23.344;2023-02-22T04:48:41;95337.84;;;10.95;44.28
64668;BME280;51077;42.716;23.344;2023-02-22T04:51:07;95316.69;;;10.90;44.15
64668;BME280;51077;42.716;23.344;2023-02-22T04:53:33;95322.22;;;10.85;43.64
64668;BME280;51077;42.716;23.344;2023-02-22T04:55:58;95330.00;;;10.80;43.44
64668;BME280;51077;42.716;23.344;2023-02-22T04:58:24;95329.28;;;10.74;43.19
64668;BME280;51077;42.716;23.344;2023-02-22T05:00:49;95333.81;;;10.72;43.17
64668;BME280;51077;42.716;23.344;2023-02-22T05:03:15;95334.59;;;10.67;43.07
64668;BME280;51077;42.716;23.344;2023-02-22T05:05:40;95330.13;;;10.64;42.55
64668;BME280;51077;42.716;23.344;2023-02-22T05:08:06;95326.91;;;10.60;42.42
64668;BME280;51077;42.716;23.344;2023-02-22T05:10:32;95329.41;;;10.57;42.30
64668;BME280;51077;42.716;23.344;2023-02-22T05:12:57;95337.41;;;10.55;42.22
64668;BME280;51077;42.716;23.344;2023-02-22T05:15:22;95341.19;;;10.52;41.98
64668;BME280;51077;42.716;23.344;2023-02-22T05:17:49;95346.44;;;10.50;41.87
64668;BME280;51077;42.716;23.344;2023-02-22T05:20:28;95346.72;;;10.47;41.82
64668;BME280;51077;42.716;23.344;2023-02-22T05:22:55;95339.50;;;10.44;41.80
64668;BME280;51077;42.716;23.344;2023-02-22T05:25:20;95345.50;;;10.42;41.52
64668;BME280;51077;42.716;23.344;2023-02-22T05:27:50;95355.22;;;10.43;41.19
64668;BME280;51077;42.716;23.344;2023-02-22T05:30:16;95352.72;;;10.40;41.25
64668;BME280;51077;42.716;23.344;2023-02-22T05:32:42;95352.00;;;10.39;41.10
64668;BME280;51077;42.716;23.344;2023-02-22T05:35:07;95359.72;;;10.41;40.99
64668;BME280;51077;42.716;23.344;2023-02-22T05:37:33;95358.44;;;10.47;40.98
64668;BME280;51077;42.716;23.344;2023-02-22T05:39:58;95361.88;;;10.53;40.70
64668;BME280;51077;42.716;23.344;2023-02-22T05:42:24;95369.56;;;10.61;40.38
64668;BME280;51077;42.716;23.344;2023-02-22T05:44:49;95371.25;;;10.69;40.32
64668;BME280;51077;42.716;23.344;2023-02-22T05:47:15;95373.41;;;10.82;39.92
64668;BME280;51077;42.716;23.344;2023-02-22T05:49:40;95379.06;;;10.95;39.84
64668;BME280;51077;42.716;23.344;2023-02-22T05:52:05;95371.94;;;11.11;39.29
64668;BME280;51077;42.716;23.344;2023-02-22T05:54:31;95376.03;;;11.29;39.21
64668;BME280;51077;42.716;23.344;2023-02-22T05:56:56;95375.88;;;11.46;39.00
64668;BME280;51077;42.716;23.344;2023-02-22T05:59:21;95381.66;;;11.67;38.74
64668;BME280;51077;42.716;23.344;2023-02-22T06:01:47;95379.72;;;11.86;38.54
64668;BME280;51077;42.716;23.344;2023-02-22T06:04:12;95378.50;;;12.06;38.09
64668;BME280;51077;42.716;23.344;2023-02-22T06:06:38;95380.72;;;12.26;37.94
64668;BME280;51077;42.716;23.344;2023-02-22T06:09:03;95386.44;;;12.47;37.37
64668;BME280;51077;42.716;23.344;2023-02-22T06:11:28;95383.91;;;12.68;37.01
64668;BME280;51077;42.716;23.344;2023-02-22T06:13:54;95378.66;;;13.02;40.81
64668;BME280;51077;42.716;23.344;2023-02-22T06:16:20;95378.31;;;13.25;39.84
64668;BME280;51077;42.716;23.344;2023-02-22T06:18:47;95381.09;;;13.38;39.68
64668;BME280;51077;42.716;23.344;2023-02-22T06:21:12;95387.91;;;13.50;39.55
64668;BME280;51077;42.716;23.344;2023-02-22T06:23:38;95387.25;;;13.71;39.41
64668;BME280;51077;42.716;23.344;2023-02-22T06:26:04;95380.06;;;13.94;38.60
64668;BME280;51077;42.716;23.344;2023-02-22T06:28:29;95387.56;;;14.20;38.51
64668;BME280;51077;42.716;23.344;2023-02-22T06:30:55;95385.50;;;14.47;38.24
64668;BME280;51077;42.716;23.344;2023-02-22T06:33:20;95393.97;;;14.76;37.80
64668;BME280;51077;42.716;23.344;2023-02-22T06:35:45;95396.81;;;15.04;37.26
64668;BME280;51077;42.716;23.344;2023-02-22T06:38:11;95402.81;;;15.37;36.87
64668;BME280;51077;42.716;23.344;2023-02-22T06:40:36;95396.81;;;15.67;36.70
64668;BME280;51077;42.716;23.344;2023-02-22T06:43:02;95399.03;;;15.97;35.71
64668;BME280;51077;42.716;23.344;2023-02-22T06:45:27;95400.69;;;16.29;35.17
64668;BME280;51077;42.716;23.344;2023-02-22T06:47:53;95399.31;;;16.58;34.58
64668;BME280;51077;42.716;23.344;2023-02-22T06:50:28;95396.13;;;16.91;34.15
64668;BME280;51077;42.716;23.344;2023-02-22T06:52:55;95396.91;;;17.22;33.60
64668;BME280;51077;42.716;23.344;2023-02-22T06:55:26;95396.34;;;17.54;33.00
64668;BME280;51077;42.716;23.344;2023-02-22T06:57:52;95394.72;;;17.81;32.80
64668;BME280;51077;42.716;23.344;2023-02-22T07:00:20;95391.69;;;18.10;32.43
64668;BME280;51077;42.716;23.344;2023-02-22T07:02:46;95394.38;;;18.41;31.89
64668;BME280;51077;42.716;23.344;2023-02-22T07:05:16;95391.50;;;18.71;31.55
64668;BME280;51077;42.716;23.344;2023-02-22T07:07:42;95395.41;;;19.01;31.16
64668;BME280;51077;42.716;23.344;2023-02-22T07:10:18;95397.84;;;19.29;30.79
64668;BME280;51077;42.716;23.344;2023-02-22T07:12:46;95399.84;;;19.62;30.41
64668;BME280;51077;42.716;23.344;2023-02-22T07:15:12;95398.09;;;19.91;29.94
64668;BME280;51077;42.716;23.344;2023-02-22T07:17:38;95402.63;;;20.21;29.71
64668;BME280;51077;42.716;23.344;2023-02-22T07:20:06;95402.88;;;20.50;29.29
64668;BME280;51077;42.716;23.344;2023-02-22T07:22:31;95391.22;;;20.79;28.96
64668;BME280;51077;42.716;23.344;2023-02-22T07:24:57;95391.38;;;21.08;28.55
64668;BME280;51077;42.716;23.344;2023-02-22T07:27:22;95378.88;;;21.36;28.33
64668;BME280;51077;42.716;23.344;2023-02-22T07:29:47;95377.34;;;21.62;27.83
64668;BME280;51077;42.716;23.344;2023-02-22T07:32:14;95383.59;;;21.90;27.78
64668;BME280;51077;42.716;23.344;2023-02-22T07:34:40;95385.59;;;22.16;27.34
64668;BME280;51077;42.716;23.344;2023-02-22T07:37:06;95374.84;;;22.42;26.61
64668;BME280;51077;42.716;23.344;2023-02-22T07:39:32;95386.44;;;22.67;26.85
64668;BME280;51077;42.716;23.344;2023-02-22T07:41:58;95386.88;;;22.93;26.58
64668;BME280;51077;42.716;23.344;2023-02-22T07:44:24;95383.13;;;23.19;26.29
64668;BME280;51077;42.716;23.344;2023-02-22T07:46:49;95381.41;;;23.45;25.98
64668;BME280;51077;42.716;23.344;2023-02-22T07:49:15;95381.75;;;23.71;25.57
64668;BME280;51077;42.716;23.344;2023-02-22T07:51:40;95391.09;;;23.95;25.36
64668;BME280;51077;42.716;23.344;2023-02-22T07:54:05;95389.13;;;24.19;25.14
64668;BME280;51077;42.716;23.344;2023-02-22T07:56:31;95380.84;;;24.42;24.84
64668;BME280;51077;42.716;23.344;2023-02-22T07:58:56;95380.34;;;24.67;24.48
64668;BME280;51077;42.716;23.344;2023-02-22T08:01:22;95376.28;;;24.92;24.31
64668;BME280;51077;42.716;23.344;2023-02-22T08:03:49;95384.19;;;25.17;24.00
64668;BME280;51077;42.716;23.344;2023-02-22T08:06:14;95375.03;;;25.40;23.84
64668;BME280;51077;42.716;23.344;2023-02-22T08:08:40;95375.78;;;25.64;23.87
64668;BME280;51077;42.716;23.344;2023-02-22T08:11:05;95372.25;;;25.87;23.33
64668;BME280;51077;42.716;23.344;2023-02-22T08:13:30;95364.63;;;26.13;23.28
64668;BME280;51077;42.716;23.344;2023-02-22T08:15:56;95359.03;;;26.38;22.99
64668;BME280;51077;42.716;23.344;2023-02-22T08:18:23;95362.50;;;26.62;22.40
64668;BME280;51077;42.716;23.344;2023-02-22T08:20:50;95364.59;;;26.87;22.56
64668;BME280;51077;42.716;23.344;2023-02-22T08:23:17;95361.78;;;27.13;22.39
64668;BME280;51077;42.716;23.344;2023-02-22T08:25:42;95356.94;;;27.41;22.03
64668;BME280;51077;42.716;23.344;2023-02-22T08:28:10;95365.31;;;27.66;21.50
64668;BME280;51077;42.716;23.344;2023-02-22T08:30:37;95363.13;;;27.92;21.60
64668;BME280;51077;42.716;23.344;2023-02-22T08:33:04;95357.38;;;28.18;21.13
64668;BME280;51077;42.716;23.344;2023-02-22T08:35:30;95357.31;;;28.45;20.80
64668;BME280;51077;42.716;23.344;2023-02-22T08:38:03;95353.78;;;28.74;20.50
64668;BME280;51077;42.716;23.344;2023-02-22T08:40:30;95353.03;;;29.03;20.33
64668;BME280;51077;42.716;23.344;2023-02-22T08:42:57;95350.06;;;29.31;19.99
64668;BME280;51077;42.716;23.344;2023-02-22T08:45:22;95344.69;;;29.53;20.17
64668;BME280;51077;42.716;23.344;2023-02-22T08:47:48;95340.94;;;29.80;19.68
64668;BME280;51077;42.716;23.344;2023-02-22T08:50:26;95347.72;;;30.07;19.31
64668;BME280;51077;42.716;23.344;2023-02-22T08:52:55;95345.25;;;30.15;19.85
64668;BME280;51077;42.716;23.344;2023-02-22T08:55:22;95345.94;;;30.31;19.92
64668;BME280;51077;42.716;23.344;2023-02-22T08:57:48;95333.97;;;30.50;19.81
64668;BME280;51077;42.716;23.344;2023-02-22T09:00:16;95337.63;;;30.71;19.68
64668;BME280;51077;42.716;23.344;2023-02-22T09:02:41;95335.84;;;30.97;19.07
64668;BME280;51077;42.716;23.344;2023-02-22T09:05:07;95328.91;;;31.20;18.61
64668;BME280;51077;42.716;23.344;2023-02-22T09:07:33;95332.75;;;31.47;18.64
64668;BME280;51077;42.716;23.344;2023-02-22T09:09:58;95327.28;;;31.73;18.29
64668;BME280;51077;42.716;23.344;2023-02-22T09:12:24;95327.50;;;31.99;18.23
64668;BME280;51077;42.716;23.344;2023-02-22T09:14:49;95322.66;;;32.23;18.45
64668;BME280;51077;42.716;23.344;2023-02-22T09:17:14;95320.00;;;32.49;18.25
64668;BME280;51077;42.716;23.344;2023-02-22T09:19:40;95325.78;;;32.75;17.80
64668;BME280;51077;42.716;23.344;2023-02-22T09:22:05;95315.84;;;32.98;17.14
64668;BME280;51077;42.716;23.344;2023-02-22T09:24:31;95313.03;;;33.22;17.64
64668;BME280;51077;42.716;23.344;2023-02-22T09:26:56;95314.41;;;33.45;17.03
64668;BME280;51077;42.716;23.344;2023-02-22T09:29:26;95316.44;;;33.67;17.03
64668;BME280;51077;42.716;23.344;2023-02-22T09:31:53;95309.91;;;33.88;16.83
64668;BME280;51077;42.716;23.344;2023-02-22T09:34:21;95308.34;;;34.09;16.76
64668;BME280;51077;42.716;23.344;2023-02-22T09:36:48;95312.47;;;34.32;16.62
64668;BME280;51077;42.716;23.344;2023-02-22T09:39:15;95305.84;;;34.51;16.33
64668;BME280;51077;42.716;23.344;2023-02-22T09:41:53;95309.19;;;34.72;16.28
64668;BME280;51077;42.716;23.344;2023-02-22T09:44:43;95305.44;;;34.95;16.42
64668;BME280;51077;42.716;23.344;2023-02-22T09:47:19;95304.56;;;35.19;15.90
64668;BME280;51077;42.716;23.344;2023-02-22T09:52:33;95302.56;;;35.60;15.59
64668;BME280;51077;42.716;23.344;2023-02-22T09:55:25;95293.69;;;35.82;14.87
64668;BME280;51077;42.716;23.344;2023-02-22T09:57:56;95288.31;;;35.98;15.34
64668;BME280;51077;42.716;23.344;2023-02-22T10:00:28;95287.91;;;36.16;14.72
64668;BME280;51077;42.716;23.344;2023-02-22T10:05:36;95281.03;;;36.31;15.42
64668;BME280;51077;42.716;23.344;2023-02-22T10:08:07;95278.22;;;36.35;15.36
64668;BME280;51077;42.716;23.344;2023-02-22T10:10:37;95269.75;;;36.41;15.82
64668;BME280;51077;42.716;23.344;2023-02-22T10:16:01;95264.41;;;36.64;15.55
64668;BME280;51077;42.716;23.344;2023-02-22T10:21:49;95252.56;;;36.86;15.48
64668;BME280;51077;42.716;23.344;2023-02-22T10:27:26;95245.03;;;37.09;16.25
64668;BME280;51077;42.716;23.344;2023-02-22T10:30:15;95234.50;;;37.23;15.82
64668;BME280;51077;42.716;23.344;2023-02-22T10:32:44;95233.19;;;37.35;16.15
64668;BME280;51077;42.716;23.344;2023-02-22T10:35:41;95224.16;;;37.57;15.67
64668;BME280;51077;42.716;23.344;2023-02-22T10:38:33;95221.53;;;37.79;15.39
64668;BME280;51077;42.716;23.344;2023-02-22T10:43:36;95215.41;;;38.13;14.41
64668;BME280;51077;42.716;23.344;2023-02-22T10:46:04;95202.63;;;38.27;14.32
64668;BME280;51077;42.716;23.344;2023-02-22T10:48:31;95196.97;;;38.35;13.58
64668;BME280;51077;42.716;23.344;2023-02-22T10:51:01;95196.19;;;38.30;13.62
64668;BME280;51077;42.716;23.344;2023-02-22T10:53:29;95194.84;;;38.37;12.94
64668;BME280;51077;42.716;23.344;2023-02-22T10:56:15;95187.06;;;38.50;13.04
64668;BME280;51077;42.716;23.344;2023-02-22T11:06:32;95178.66;;;38.83;12.26
64668;BME280;51077;42.716;23.344;2023-02-22T11:09:07;95175.88;;;38.97;12.42
64668;BME280;51077;42.716;23.344;2023-02-22T11:11:35;95174.47;;;39.08;12.23
64668;BME280;51077;42.716;23.344;2023-02-22T11:14:01;95165.19;;;39.20;12.13
64668;BME280;51077;42.716;23.344;2023-02-22T11:16:33;95164.50;;;39.30;11.91
64668;BME280;51077;42.716;23.344;2023-02-22T11:21:46;95155.91;;;39.40;11.39
64668;BME280;51077;42.716;23.344;2023-02-22T11:24:13;95161.66;;;39.36;11.99
64668;BME280;51077;42.716;23.344;2023-02-22T11:26:49;95143.03;;;39.51;11.26
64668;BME280;51077;42.716;23.344;2023-02-22T11:29:25;95150.94;;;39.59;11.47
64668;BME280;51077;42.716;23.344;2023-02-22T11:31:51;95138.72;;;39.60;11.09
64668;BME280;51077;42.716;23.344;2023-02-22T11:34:31;95136.59;;;39.73;11.01
64668;BME280;51077;42.716;23.344;2023-02-22T11:40:17;95133.75;;;39.93;11.13
64668;BME280;51077;42.716;23.344;2023-02-22T11:42:48;95130.16;;;39.93;11.61
64668;BME280;51077;42.716;23.344;2023-02-22T11:45:29;95122.25;;;40.00;11.88
64668;BME280;51077;42.716;23.344;2023-02-22T11:47:56;95116.50;;;40.10;12.37
64668;BME280;51077;42.716;23.344;2023-02-22T11:50:44;95118.66;;;40.15;12.27
64668;BME280;51077;42.716;23.344;2023-02-22T11:53:31;95115.06;;;40.17;11.63
64668;BME280;51077;42.716;23.344;2023-02-22T12:09:16;95094.94;;;39.82;12.80
64668;BME280;51077;42.716;23.344;2023-02-22T12:17:25;95084.13;;;40.32;12.37
64668;BME280;51077;42.716;23.344;2023-02-22T12:26:13;95069.06;;;40.13;11.16
64668;BME280;51077;42.716;23.344;2023-02-22T12:28:44;95076.25;;;40.14;11.04
64668;BME280;51077;42.716;23.344;2023-02-22T12:31:28;95071.94;;;40.07;10.93
64668;BME280;51077;42.716;23.344;2023-02-22T12:34:06;95066.91;;;40.01;11.25
64668;BME280;51077;42.716;23.344;2023-02-22T12:36:50;95063.31;;;40.07;11.20
64668;BME280;51077;42.716;23.344;2023-02-22T12:42:25;95059.00;;;40.02;11.24
64668;BME280;51077;42.716;23.344;2023-02-22T12:44:57;95053.25;;;40.06;10.14
64668;BME280;51077;42.716;23.344;2023-02-22T12:47:41;95051.84;;;39.84;10.26
64668;BME280;51077;42.716;23.344;2023-02-22T12:50:16;95057.59;;;39.64;10.56
64668;BME280;51077;42.716;23.344;2023-02-22T12:52:49;95053.25;;;39.53;10.79
64668;BME280;51077;42.716;23.344;2023-02-22T12:55:24;95043.22;;;39.41;10.78
64668;BME280;51077;42.716;23.344;2023-02-22T13:00:21;95046.06;;;39.39;10.58
64668;BME280;51077;42.716;23.344;2023-02-22T13:05:37;95037.47;;;39.33;10.74
64668;BME280;51077;42.716;23.344;2023-02-22T13:16:24;95031.69;;;39.15;10.49
64668;BME280;51077;42.716;23.344;2023-02-22T13:22:08;95034.44;;;38.72;10.78
64668;BME280;51077;42.716;23.344;2023-02-22T13:25:13;95047.22;;;38.48;10.82
64668;BME280;51077;42.716;23.344;2023-02-22T13:30:40;95036.38;;;38.29;11.17
64668;BME280;51077;42.716;23.344;2023-02-22T13:41:50;95039.72;;;37.86;10.74
64668;BME280;51077;42.716;23.344;2023-02-22T13:50:00;95025.78;;;37.46;11.54
64668;BME280;51077;42.716;23.344;2023-02-22T13:52:32;95019.22;;;37.33;11.30
64668;BME280;51077;42.716;23.344;2023-02-22T13:55:04;95030.53;;;37.19;11.15
64668;BME280;51077;42.716;23.344;2023-02-22T13:57:41;95028.19;;;36.97;11.15
64668;BME280;51077;42.716;23.344;2023-02-22T14:10:44;95028.50;;;36.08;12.10
64668;BME280;51077;42.716;23.344;2023-02-22T14:13:12;95021.09;;;35.89;12.04
64668;BME280;51077;42.716;23.344;2023-02-22T14:21:04;95022.19;;;35.25;12.29
64668;BME280;51077;42.716;23.344;2023-02-22T14:23:51;95021.84;;;35.05;12.39
64668;BME280;51077;42.716;23.344;2023-02-22T14:26:37;95027.72;;;34.74;12.51
64668;BME280;51077;42.716;23.344;2023-02-22T14:35:02;95029.06;;;34.01;12.69
64668;BME280;51077;42.716;23.344;2023-02-22T14:37:17;95026.88;;;33.69;13.05
64668;BME280;51077;42.716;23.344;2023-02-22T14:39:47;95022.75;;;33.44;13.29
64668;BME280;51077;42.716;23.344;2023-02-22T14:49:58;95020.97;;;32.49;13.87
64668;BME280;51077;42.716;23.344;2023-02-22T14:52:28;95020.69;;;32.15;14.05
64668;BME280;51077;42.716;23.344;2023-02-22T14:55:24;95013.56;;;31.90;13.84
64668;BME280;51077;42.716;23.344;2023-02-22T14:58:12;95020.38;;;31.59;14.34
64668;BME280;51077;42.716;23.344;2023-02-22T15:00:44;95017.44;;;31.33;14.71
64668;BME280;51077;42.716;23.344;2023-02-22T15:03:29;95018.59;;;31.03;14.49
64668;BME280;51077;42.716;23.344;2023-02-22T15:06:04;95023.81;;;30.49;20.76
64668;BME280;51077;42.716;23.344;2023-02-22T15:08:30;95015.63;;;30.00;20.19
64668;BME280;51077;42.716;23.344;2023-02-22T15:10:58;95016.59;;;29.89;20.00
64668;BME280;51077;42.716;23.344;2023-02-22T15:13:28;95018.19;;;29.74;20.07
64668;BME280;51077;42.716;23.344;2023-02-22T15:16:02;95020.91;;;29.54;20.12
64668;BME280;51077;42.716;23.344;2023-02-22T15:18:33;95017.28;;;29.34;20.10
64668;BME280;51077;42.716;23.344;2023-02-22T15:21:20;95016.19;;;29.07;20.31
64668;BME280;51077;42.716;23.344;2023-02-22T15:23:54;95010.16;;;28.81;20.10
64668;BME280;51077;42.716;23.344;2023-02-22T15:26:28;95017.53;;;28.54;20.09
64668;BME280;51077;42.716;23.344;2023-02-22T15:28:56;95017.91;;;28.31;20.44
64668;BME280;51077;42.716;23.344;2023-02-22T15:33:53;95021.97;;;27.80;20.43
64668;BME280;51077;42.716;23.344;2023-02-22T15:36:24;95022.91;;;27.55;20.76